Boston, Massachusetts
Traffic Map
Current Weather Conditions
Boston, Massachusetts
Few Clouds
Few Clouds
19°
Feels Like: 19°
Wind Chill: 19° Ceiling: Unl
Heat Index: 19° Visibility: 10mi
Dew Point: 16° Wind: 6mph
Humidity: 81% Direction: 30° (NNE)
Pressure: 30.11in Gusts: 0mph
Raw Report DataKBOS 290654Z 03005KT 10SM FEW090 19/16 A3011 RMK AO2 SLP197 T01940161
Traffic Incident Summary
Active as of:
Severity:
Category:
InformationThere was an issue retrieving the traffic information for this location. Please try a different location or try again shortly.
Advertisements
Track Severe Weather on mobile